sensor_id;sensor_type;location;lat;lon;timestamp;P1;durP1;ratioP1;P2;durP2;ratioP2
11425;SDS011;5769;47.998;7.788;2022-08-03T00:02:01;119.13;;;29.30;;
11425;SDS011;5769;47.998;7.788;2022-08-03T00:04:28;118.93;;;29.30;;
11425;SDS011;5769;47.998;7.788;2022-08-03T00:06:56;119.70;;;29.40;;
11425;SDS011;5769;47.998;7.788;2022-08-03T00:09:22;120.03;;;29.50;;
11425;SDS011;5769;47.998;7.788;2022-08-03T00:11:49;119.70;;;29.40;;
11425;SDS011;5769;47.998;7.788;2022-08-03T00:14:16;119.37;;;29.40;;
11425;SDS011;5769;47.998;7.788;2022-08-03T00:16:43;119.93;;;29.40;;
11425;SDS011;5769;47.998;7.788;2022-08-03T00:19:09;118.80;;;29.30;;
11425;SDS011;5769;47.998;7.788;2022-08-03T00:21:36;119.10;;;29.40;;
11425;SDS011;5769;47.998;7.788;2022-08-03T00:24:04;118.73;;;29.37;;
11425;SDS011;5769;47.998;7.788;2022-08-03T00:26:31;118.77;;;29.30;;
11425;SDS011;5769;47.998;7.788;2022-08-03T00:28:58;118.67;;;29.30;;
11425;SDS011;5769;47.998;7.788;2022-08-03T00:31:25;118.47;;;29.23;;
11425;SDS011;5769;47.998;7.788;2022-08-03T00:33:52;118.47;;;29.27;;
11425;SDS011;5769;47.998;7.788;2022-08-03T00:36:18;118.43;;;29.30;;
11425;SDS011;5769;47.998;7.788;2022-08-03T00:38:45;118.40;;;29.30;;
11425;SDS011;5769;47.998;7.788;2022-08-03T00:41:13;118.17;;;29.33;;
11425;SDS011;5769;47.998;7.788;2022-08-03T00:43:40;118.20;;;29.30;;
11425;SDS011;5769;47.998;7.788;2022-08-03T00:46:06;117.90;;;29.20;;
11425;SDS011;5769;47.998;7.788;2022-08-03T00:48:33;117.97;;;29.23;;
11425;SDS011;5769;47.998;7.788;2022-08-03T00:51:00;118.07;;;29.37;;
11425;SDS011;5769;47.998;7.788;2022-08-03T00:53:27;117.87;;;29.30;;
11425;SDS011;5769;47.998;7.788;2022-08-03T00:55:54;117.63;;;29.20;;
11425;SDS011;5769;47.998;7.788;2022-08-03T00:58:22;118.00;;;29.30;;
11425;SDS011;5769;47.998;7.788;2022-08-03T01:00:49;117.70;;;29.27;;
11425;SDS011;5769;47.998;7.788;2022-08-03T01:03:16;117.80;;;29.40;;
11425;SDS011;5769;47.998;7.788;2022-08-03T01:05:46;117.93;;;29.30;;
11425;SDS011;5769;47.998;7.788;2022-08-03T01:08:21;117.97;;;29.27;;
11425;SDS011;5769;47.998;7.788;2022-08-03T01:10:56;118.20;;;29.33;;
11425;SDS011;5769;47.998;7.788;2022-08-03T01:13:33;118.30;;;29.30;;
11425;SDS011;5769;47.998;7.788;2022-08-03T01:16:09;117.70;;;29.20;;
11425;SDS011;5769;47.998;7.788;2022-08-03T01:18:42;117.80;;;29.20;;
11425;SDS011;5769;47.998;7.788;2022-08-03T01:21:13;118.27;;;29.20;;
11425;SDS011;5769;47.998;7.788;2022-08-03T01:23:58;118.17;;;29.30;;
11425;SDS011;5769;47.998;7.788;2022-08-03T01:26:46;118.37;;;29.23;;
11425;SDS011;5769;47.998;7.788;2022-08-03T01:32:19;118.23;;;29.27;;
11425;SDS011;5769;47.998;7.788;2022-08-03T01:34:51;118.37;;;29.27;;
11425;SDS011;5769;47.998;7.788;2022-08-03T01:37:21;118.37;;;29.20;;
11425;SDS011;5769;47.998;7.788;2022-08-03T01:39:52;118.57;;;29.30;;
11425;SDS011;5769;47.998;7.788;2022-08-03T01:42:22;118.70;;;29.40;;
11425;SDS011;5769;47.998;7.788;2022-08-03T01:44:51;118.53;;;29.30;;
11425;SDS011;5769;47.998;7.788;2022-08-03T01:47:19;118.40;;;29.30;;
11425;SDS011;5769;47.998;7.788;2022-08-03T01:49:49;118.63;;;29.30;;
11425;SDS011;5769;47.998;7.788;2022-08-03T01:52:17;118.67;;;29.20;;
11425;SDS011;5769;47.998;7.788;2022-08-03T01:54:47;118.53;;;29.20;;
11425;SDS011;5769;47.998;7.788;2022-08-03T01:57:16;118.53;;;29.30;;
11425;SDS011;5769;47.998;7.788;2022-08-03T01:59:45;118.63;;;29.30;;
11425;SDS011;5769;47.998;7.788;2022-08-03T02:02:16;118.40;;;29.27;;
11425;SDS011;5769;47.998;7.788;2022-08-03T02:04:44;118.17;;;29.20;;
11425;SDS011;5769;47.998;7.788;2022-08-03T02:07:13;118.27;;;29.20;;
11425;SDS011;5769;47.998;7.788;2022-08-03T02:09:42;118.80;;;29.40;;
11425;SDS011;5769;47.998;7.788;2022-08-03T02:12:11;118.57;;;29.27;;
11425;SDS011;5769;47.998;7.788;2022-08-03T02:14:39;118.67;;;29.30;;
11425;SDS011;5769;47.998;7.788;2022-08-03T02:17:09;119.10;;;29.30;;
11425;SDS011;5769;47.998;7.788;2022-08-03T02:19:37;118.53;;;29.20;;
11425;SDS011;5769;47.998;7.788;2022-08-03T02:22:07;118.97;;;29.37;;
11425;SDS011;5769;47.998;7.788;2022-08-03T02:24:36;118.47;;;29.30;;
11425;SDS011;5769;47.998;7.788;2022-08-03T02:27:04;118.47;;;29.30;;
11425;SDS011;5769;47.998;7.788;2022-08-03T02:29:35;118.60;;;29.40;;
11425;SDS011;5769;47.998;7.788;2022-08-03T02:32:04;118.40;;;29.30;;
11425;SDS011;5769;47.998;7.788;2022-08-03T02:34:34;118.80;;;29.30;;
11425;SDS011;5769;47.998;7.788;2022-08-03T02:37:04;118.37;;;29.30;;
11425;SDS011;5769;47.998;7.788;2022-08-03T02:39:32;118.60;;;29.30;;
11425;SDS011;5769;47.998;7.788;2022-08-03T02:42:01;118.57;;;29.33;;
11425;SDS011;5769;47.998;7.788;2022-08-03T02:44:29;118.37;;;29.27;;
11425;SDS011;5769;47.998;7.788;2022-08-03T02:46:59;118.33;;;29.40;;
11425;SDS011;5769;47.998;7.788;2022-08-03T02:49:30;118.03;;;29.27;;
11425;SDS011;5769;47.998;7.788;2022-08-03T02:51:58;118.20;;;29.40;;
11425;SDS011;5769;47.998;7.788;2022-08-03T02:54:26;117.90;;;29.20;;
11425;SDS011;5769;47.998;7.788;2022-08-03T02:56:54;117.70;;;29.20;;
11425;SDS011;5769;47.998;7.788;2022-08-03T02:59:22;118.20;;;29.27;;
11425;SDS011;5769;47.998;7.788;2022-08-03T03:01:51;118.10;;;29.30;;
11425;SDS011;5769;47.998;7.788;2022-08-03T03:04:20;118.77;;;29.30;;
11425;SDS011;5769;47.998;7.788;2022-08-03T03:06:47;118.60;;;29.30;;
11425;SDS011;5769;47.998;7.788;2022-08-03T03:09:15;118.77;;;29.37;;
11425;SDS011;5769;47.998;7.788;2022-08-03T03:11:45;118.57;;;29.30;;
11425;SDS011;5769;47.998;7.788;2022-08-03T03:14:14;118.80;;;29.40;;
11425;SDS011;5769;47.998;7.788;2022-08-03T03:16:41;118.77;;;29.37;;
11425;SDS011;5769;47.998;7.788;2022-08-03T03:19:09;118.47;;;29.30;;
11425;SDS011;5769;47.998;7.788;2022-08-03T03:21:38;117.87;;;29.13;;
11425;SDS011;5769;47.998;7.788;2022-08-03T03:24:05;117.80;;;29.20;;
11425;SDS011;5769;47.998;7.788;2022-08-03T03:26:34;117.60;;;29.30;;
11425;SDS011;5769;47.998;7.788;2022-08-03T03:29:02;117.43;;;29.20;;
11425;SDS011;5769;47.998;7.788;2022-08-03T03:31:30;117.17;;;29.17;;
11425;SDS011;5769;47.998;7.788;2022-08-03T03:33:57;117.27;;;29.33;;
11425;SDS011;5769;47.998;7.788;2022-08-03T03:36:24;117.20;;;29.20;;
11425;SDS011;5769;47.998;7.788;2022-08-03T03:38:51;117.37;;;29.30;;
11425;SDS011;5769;47.998;7.788;2022-08-03T03:41:18;116.60;;;29.07;;
11425;SDS011;5769;47.998;7.788;2022-08-03T03:43:45;116.73;;;29.20;;
11425;SDS011;5769;47.998;7.788;2022-08-03T03:46:13;116.70;;;29.17;;
11425;SDS011;5769;47.998;7.788;2022-08-03T03:48:40;116.90;;;29.20;;
11425;SDS011;5769;47.998;7.788;2022-08-03T03:51:07;116.70;;;29.23;;
11425;SDS011;5769;47.998;7.788;2022-08-03T03:53:35;116.17;;;29.17;;
11425;SDS011;5769;47.998;7.788;2022-08-03T03:56:02;115.87;;;29.10;;
11425;SDS011;5769;47.998;7.788;2022-08-03T03:58:30;115.90;;;29.20;;
11425;SDS011;5769;47.998;7.788;2022-08-03T04:00:57;116.47;;;29.17;;
11425;SDS011;5769;47.998;7.788;2022-08-03T04:03:26;116.30;;;29.20;;
11425;SDS011;5769;47.998;7.788;2022-08-03T04:05:53;116.00;;;29.17;;
11425;SDS011;5769;47.998;7.788;2022-08-03T04:08:37;116.57;;;29.20;;
11425;SDS011;5769;47.998;7.788;2022-08-03T04:11:25;116.33;;;29.27;;
11425;SDS011;5769;47.998;7.788;2022-08-03T04:13:54;116.17;;;29.10;;
11425;SDS011;5769;47.998;7.788;2022-08-03T04:16:24;115.80;;;29.20;;
11425;SDS011;5769;47.998;7.788;2022-08-03T04:18:56;115.73;;;29.20;;
11425;SDS011;5769;47.998;7.788;2022-08-03T04:21:27;115.77;;;29.20;;
11425;SDS011;5769;47.998;7.788;2022-08-03T04:23:57;115.43;;;29.00;;
11425;SDS011;5769;47.998;7.788;2022-08-03T04:26:28;115.70;;;29.10;;
11425;SDS011;5769;47.998;7.788;2022-08-03T04:28:58;116.37;;;29.23;;
11425;SDS011;5769;47.998;7.788;2022-08-03T04:31:26;116.67;;;29.30;;
11425;SDS011;5769;47.998;7.788;2022-08-03T04:33:56;116.07;;;29.20;;
11425;SDS011;5769;47.998;7.788;2022-08-03T04:36:25;116.20;;;29.13;;
11425;SDS011;5769;47.998;7.788;2022-08-03T04:38:58;116.50;;;29.27;;
11425;SDS011;5769;47.998;7.788;2022-08-03T04:41:27;116.40;;;29.20;;
11425;SDS011;5769;47.998;7.788;2022-08-03T04:43:56;115.93;;;29.10;;
11425;SDS011;5769;47.998;7.788;2022-08-03T04:46:25;116.27;;;29.20;;
11425;SDS011;5769;47.998;7.788;2022-08-03T04:48:55;116.17;;;29.17;;
11425;SDS011;5769;47.998;7.788;2022-08-03T04:51:23;115.70;;;29.17;;
11425;SDS011;5769;47.998;7.788;2022-08-03T04:53:50;116.13;;;29.20;;
11425;SDS011;5769;47.998;7.788;2022-08-03T04:56:17;115.67;;;29.17;;
11425;SDS011;5769;47.998;7.788;2022-08-03T04:58:44;115.73;;;29.10;;
11425;SDS011;5769;47.998;7.788;2022-08-03T05:01:11;115.40;;;29.03;;
11425;SDS011;5769;47.998;7.788;2022-08-03T05:03:37;115.47;;;29.10;;
11425;SDS011;5769;47.998;7.788;2022-08-03T05:06:05;115.63;;;29.23;;
11425;SDS011;5769;47.998;7.788;2022-08-03T05:08:32;115.07;;;29.10;;
11425;SDS011;5769;47.998;7.788;2022-08-03T05:10:59;114.90;;;29.10;;
11425;SDS011;5769;47.998;7.788;2022-08-03T05:13:26;114.70;;;29.00;;
11425;SDS011;5769;47.998;7.788;2022-08-03T05:15:53;114.73;;;29.10;;
11425;SDS011;5769;47.998;7.788;2022-08-03T05:18:20;114.73;;;29.10;;
11425;SDS011;5769;47.998;7.788;2022-08-03T05:20:47;114.70;;;29.20;;
11425;SDS011;5769;47.998;7.788;2022-08-03T05:23:15;114.97;;;29.00;;
11425;SDS011;5769;47.998;7.788;2022-08-03T05:25:42;115.30;;;29.00;;
11425;SDS011;5769;47.998;7.788;2022-08-03T05:28:08;115.07;;;29.00;;
11425;SDS011;5769;47.998;7.788;2022-08-03T05:30:35;115.23;;;29.20;;
11425;SDS011;5769;47.998;7.788;2022-08-03T05:33:02;114.90;;;28.93;;
11425;SDS011;5769;47.998;7.788;2022-08-03T05:35:29;114.93;;;29.10;;
11425;SDS011;5769;47.998;7.788;2022-08-03T05:37:56;115.10;;;29.20;;
11425;SDS011;5769;47.998;7.788;2022-08-03T05:40:24;115.00;;;29.20;;
11425;SDS011;5769;47.998;7.788;2022-08-03T05:42:51;115.07;;;29.20;;
11425;SDS011;5769;47.998;7.788;2022-08-03T05:45:18;114.83;;;29.10;;
11425;SDS011;5769;47.998;7.788;2022-08-03T05:47:45;114.77;;;29.07;;
11425;SDS011;5769;47.998;7.788;2022-08-03T05:50:12;114.90;;;29.20;;
11425;SDS011;5769;47.998;7.788;2022-08-03T05:52:39;114.60;;;29.00;;
11425;SDS011;5769;47.998;7.788;2022-08-03T05:55:07;114.87;;;29.20;;
11425;SDS011;5769;47.998;7.788;2022-08-03T05:57:36;114.77;;;29.10;;
11425;SDS011;5769;47.998;7.788;2022-08-03T06:00:04;114.60;;;29.10;;
11425;SDS011;5769;47.998;7.788;2022-08-03T06:02:32;114.57;;;29.20;;
11425;SDS011;5769;47.998;7.788;2022-08-03T06:04:58;114.80;;;29.20;;
11425;SDS011;5769;47.998;7.788;2022-08-03T06:07:25;114.50;;;29.20;;
11425;SDS011;5769;47.998;7.788;2022-08-03T06:09:52;114.27;;;29.10;;
11425;SDS011;5769;47.998;7.788;2022-08-03T06:12:19;113.90;;;29.00;;
11425;SDS011;5769;47.998;7.788;2022-08-03T06:14:47;113.90;;;29.20;;
11425;SDS011;5769;47.998;7.788;2022-08-03T06:17:14;113.70;;;29.10;;
11425;SDS011;5769;47.998;7.788;2022-08-03T06:19:41;113.70;;;29.10;;
11425;SDS011;5769;47.998;7.788;2022-08-03T06:22:08;113.60;;;29.03;;
11425;SDS011;5769;47.998;7.788;2022-08-03T06:24:34;113.63;;;29.10;;
11425;SDS011;5769;47.998;7.788;2022-08-03T06:27:01;113.60;;;29.10;;
11425;SDS011;5769;47.998;7.788;2022-08-03T06:29:28;113.40;;;29.10;;
11425;SDS011;5769;47.998;7.788;2022-08-03T06:31:57;113.47;;;29.10;;
11425;SDS011;5769;47.998;7.788;2022-08-03T06:34:23;113.60;;;29.10;;
11425;SDS011;5769;47.998;7.788;2022-08-03T06:36:50;113.67;;;29.00;;
11425;SDS011;5769;47.998;7.788;2022-08-03T06:39:18;113.57;;;29.13;;
11425;SDS011;5769;47.998;7.788;2022-08-03T06:41:45;113.27;;;29.00;;
11425;SDS011;5769;47.998;7.788;2022-08-03T06:44:12;113.30;;;29.00;;
11425;SDS011;5769;47.998;7.788;2022-08-03T06:46:39;113.57;;;29.10;;
11425;SDS011;5769;47.998;7.788;2022-08-03T06:49:08;113.60;;;29.10;;
11425;SDS011;5769;47.998;7.788;2022-08-03T06:51:35;113.67;;;29.20;;
11425;SDS011;5769;47.998;7.788;2022-08-03T06:54:02;114.33;;;29.20;;
11425;SDS011;5769;47.998;7.788;2022-08-03T06:56:29;113.97;;;29.10;;
11425;SDS011;5769;47.998;7.788;2022-08-03T06:58:55;113.80;;;29.10;;
11425;SDS011;5769;47.998;7.788;2022-08-03T07:01:22;113.60;;;29.10;;
11425;SDS011;5769;47.998;7.788;2022-08-03T07:03:49;113.60;;;29.30;;
11425;SDS011;5769;47.998;7.788;2022-08-03T07:06:20;113.53;;;29.07;;
11425;SDS011;5769;47.998;7.788;2022-08-03T07:08:47;113.33;;;29.00;;
11425;SDS011;5769;47.998;7.788;2022-08-03T07:11:13;113.17;;;29.00;;
11425;SDS011;5769;47.998;7.788;2022-08-03T07:13:40;113.30;;;29.10;;
11425;SDS011;5769;47.998;7.788;2022-08-03T07:16:07;113.43;;;29.20;;
11425;SDS011;5769;47.998;7.788;2022-08-03T07:18:36;113.67;;;29.10;;
11425;SDS011;5769;47.998;7.788;2022-08-03T07:21:03;114.33;;;29.10;;
11425;SDS011;5769;47.998;7.788;2022-08-03T07:23:33;117.30;;;29.30;;
11425;SDS011;5769;47.998;7.788;2022-08-03T07:26:00;116.70;;;29.23;;
11425;SDS011;5769;47.998;7.788;2022-08-03T07:28:26;115.80;;;29.20;;
11425;SDS011;5769;47.998;7.788;2022-08-03T07:30:53;115.47;;;29.20;;
11425;SDS011;5769;47.998;7.788;2022-08-03T07:33:20;115.67;;;29.20;;
11425;SDS011;5769;47.998;7.788;2022-08-03T07:35:46;115.13;;;29.20;;
11425;SDS011;5769;47.998;7.788;2022-08-03T07:38:13;115.00;;;29.10;;
11425;SDS011;5769;47.998;7.788;2022-08-03T07:40:41;114.77;;;29.07;;
11425;SDS011;5769;47.998;7.788;2022-08-03T07:43:08;114.67;;;29.30;;
11425;SDS011;5769;47.998;7.788;2022-08-03T07:45:35;114.60;;;29.30;;
11425;SDS011;5769;47.998;7.788;2022-08-03T07:48:01;114.77;;;29.17;;
11425;SDS011;5769;47.998;7.788;2022-08-03T07:50:28;114.40;;;29.20;;
11425;SDS011;5769;47.998;7.788;2022-08-03T07:52:55;114.47;;;29.20;;
11425;SDS011;5769;47.998;7.788;2022-08-03T07:55:24;114.50;;;29.10;;
11425;SDS011;5769;47.998;7.788;2022-08-03T07:58:00;114.43;;;29.17;;
11425;SDS011;5769;47.998;7.788;2022-08-03T08:00:29;114.20;;;29.10;;
11425;SDS011;5769;47.998;7.788;2022-08-03T08:02:56;114.47;;;29.10;;
11425;SDS011;5769;47.998;7.788;2022-08-03T08:05:23;114.13;;;29.20;;
11425;SDS011;5769;47.998;7.788;2022-08-03T08:07:50;114.23;;;29.20;;
11425;SDS011;5769;47.998;7.788;2022-08-03T08:10:17;114.20;;;29.10;;
11425;SDS011;5769;47.998;7.788;2022-08-03T08:12:44;114.03;;;28.97;;
11425;SDS011;5769;47.998;7.788;2022-08-03T08:15:12;114.10;;;29.00;;
11425;SDS011;5769;47.998;7.788;2022-08-03T08:17:40;114.33;;;29.00;;
11425;SDS011;5769;47.998;7.788;2022-08-03T08:20:14;114.80;;;29.10;;
11425;SDS011;5769;47.998;7.788;2022-08-03T08:22:42;115.20;;;29.20;;
11425;SDS011;5769;47.998;7.788;2022-08-03T08:25:08;114.30;;;29.20;;
11425;SDS011;5769;47.998;7.788;2022-08-03T08:27:39;114.57;;;29.20;;
11425;SDS011;5769;47.998;7.788;2022-08-03T08:30:07;114.00;;;29.10;;
11425;SDS011;5769;47.998;7.788;2022-08-03T08:32:36;114.00;;;29.20;;
11425;SDS011;5769;47.998;7.788;2022-08-03T08:35:03;113.87;;;29.10;;
11425;SDS011;5769;47.998;7.788;2022-08-03T08:37:31;113.80;;;29.00;;
11425;SDS011;5769;47.998;7.788;2022-08-03T08:39:57;113.63;;;29.10;;
11425;SDS011;5769;47.998;7.788;2022-08-03T08:42:24;113.40;;;29.00;;
11425;SDS011;5769;47.998;7.788;2022-08-03T08:44:51;113.77;;;29.00;;
11425;SDS011;5769;47.998;7.788;2022-08-03T08:47:18;113.77;;;29.13;;
11425;SDS011;5769;47.998;7.788;2022-08-03T08:49:49;113.67;;;29.20;;
11425;SDS011;5769;47.998;7.788;2022-08-03T08:52:19;113.87;;;29.13;;
11425;SDS011;5769;47.998;7.788;2022-08-03T08:54:49;113.60;;;29.00;;
11425;SDS011;5769;47.998;7.788;2022-08-03T08:57:18;113.47;;;29.10;;
11425;SDS011;5769;47.998;7.788;2022-08-03T08:59:46;113.30;;;29.03;;
11425;SDS011;5769;47.998;7.788;2022-08-03T09:02:13;113.27;;;29.00;;
11425;SDS011;5769;47.998;7.788;2022-08-03T09:04:40;113.20;;;29.10;;
11425;SDS011;5769;47.998;7.788;2022-08-03T09:07:08;112.80;;;29.00;;
11425;SDS011;5769;47.998;7.788;2022-08-03T09:09:34;112.80;;;29.07;;
11425;SDS011;5769;47.998;7.788;2022-08-03T09:12:01;112.87;;;29.10;;
11425;SDS011;5769;47.998;7.788;2022-08-03T09:14:28;112.87;;;29.20;;
11425;SDS011;5769;47.998;7.788;2022-08-03T09:16:55;113.07;;;29.10;;
11425;SDS011;5769;47.998;7.788;2022-08-03T09:19:25;113.40;;;29.10;;
11425;SDS011;5769;47.998;7.788;2022-08-03T09:22:06;112.70;;;29.03;;
11425;SDS011;5769;47.998;7.788;2022-08-03T09:24:35;113.13;;;29.10;;
11425;SDS011;5769;47.998;7.788;2022-08-03T09:27:03;112.90;;;29.10;;
11425;SDS011;5769;47.998;7.788;2022-08-03T09:29:35;112.67;;;29.10;;
11425;SDS011;5769;47.998;7.788;2022-08-03T09:32:02;112.70;;;29.10;;
11425;SDS011;5769;47.998;7.788;2022-08-03T09:34:30;112.70;;;29.10;;
11425;SDS011;5769;47.998;7.788;2022-08-03T09:36:57;112.50;;;29.03;;
11425;SDS011;5769;47.998;7.788;2022-08-03T09:39:26;112.27;;;28.90;;
11425;SDS011;5769;47.998;7.788;2022-08-03T09:42:05;112.77;;;29.10;;
11425;SDS011;5769;47.998;7.788;2022-08-03T09:44:33;112.57;;;29.00;;
11425;SDS011;5769;47.998;7.788;2022-08-03T09:47:02;112.67;;;29.07;;
11425;SDS011;5769;47.998;7.788;2022-08-03T09:49:30;113.40;;;29.10;;
11425;SDS011;5769;47.998;7.788;2022-08-03T09:51:58;113.63;;;29.20;;
11425;SDS011;5769;47.998;7.788;2022-08-03T09:54:28;113.67;;;29.00;;
11425;SDS011;5769;47.998;7.788;2022-08-03T09:56:56;114.10;;;29.20;;
11425;SDS011;5769;47.998;7.788;2022-08-03T09:59:24;113.87;;;29.10;;
11425;SDS011;5769;47.998;7.788;2022-08-03T10:01:52;114.00;;;29.10;;
11425;SDS011;5769;47.998;7.788;2022-08-03T10:04:20;114.23;;;29.10;;
11425;SDS011;5769;47.998;7.788;2022-08-03T10:07:00;114.00;;;29.10;;
11425;SDS011;5769;47.998;7.788;2022-08-03T10:09:30;114.40;;;29.10;;
11425;SDS011;5769;47.998;7.788;2022-08-03T10:11:56;114.30;;;29.10;;
11425;SDS011;5769;47.998;7.788;2022-08-03T10:14:31;114.60;;;29.20;;
11425;SDS011;5769;47.998;7.788;2022-08-03T10:17:00;114.60;;;29.10;;
11425;SDS011;5769;47.998;7.788;2022-08-03T10:19:27;114.30;;;29.10;;
11425;SDS011;5769;47.998;7.788;2022-08-03T10:21:54;114.27;;;29.20;;
11425;SDS011;5769;47.998;7.788;2022-08-03T10:24:23;114.20;;;29.00;;
11425;SDS011;5769;47.998;7.788;2022-08-03T10:26:52;114.50;;;29.10;;
11425;SDS011;5769;47.998;7.788;2022-08-03T10:29:27;114.37;;;29.07;;
11425;SDS011;5769;47.998;7.788;2022-08-03T10:31:55;114.93;;;29.30;;
11425;SDS011;5769;47.998;7.788;2022-08-03T10:34:25;114.87;;;29.10;;
11425;SDS011;5769;47.998;7.788;2022-08-03T10:36:55;114.70;;;29.20;;
11425;SDS011;5769;47.998;7.788;2022-08-03T10:39:24;114.60;;;29.00;;
11425;SDS011;5769;47.998;7.788;2022-08-03T10:41:56;114.90;;;29.13;;
11425;SDS011;5769;47.998;7.788;2022-08-03T10:44:23;114.77;;;29.10;;
11425;SDS011;5769;47.998;7.788;2022-08-03T10:46:53;114.37;;;29.17;;
11425;SDS011;5769;47.998;7.788;2022-08-03T10:49:21;116.33;;;29.27;;
11425;SDS011;5769;47.998;7.788;2022-08-03T10:51:49;115.93;;;29.20;;
11425;SDS011;5769;47.998;7.788;2022-08-03T10:57:42;115.30;;;29.20;;
11425;SDS011;5769;47.998;7.788;2022-08-03T11:00:13;115.10;;;29.10;;
11425;SDS011;5769;47.998;7.788;2022-08-03T11:05:27;115.40;;;29.20;;
11425;SDS011;5769;47.998;7.788;2022-08-03T11:11:01;114.33;;;29.10;;
11425;SDS011;5769;47.998;7.788;2022-08-03T11:13:57;114.30;;;29.20;;
11425;SDS011;5769;47.998;7.788;2022-08-03T11:16:27;114.43;;;29.10;;
11425;SDS011;5769;47.998;7.788;2022-08-03T11:18:55;114.07;;;29.20;;
11425;SDS011;5769;47.998;7.788;2022-08-03T11:27:21;113.87;;;29.00;;
11425;SDS011;5769;47.998;7.788;2022-08-03T11:29:56;113.80;;;29.10;;
11425;SDS011;5769;47.998;7.788;2022-08-03T11:35:28;113.50;;;29.03;;
11425;SDS011;5769;47.998;7.788;2022-08-03T11:40:43;113.60;;;29.00;;
11425;SDS011;5769;47.998;7.788;2022-08-03T11:46:11;113.80;;;29.17;;
11425;SDS011;5769;47.998;7.788;2022-08-03T11:48:43;113.53;;;29.10;;
11425;SDS011;5769;47.998;7.788;2022-08-03T11:51:19;113.47;;;29.10;;
11425;SDS011;5769;47.998;7.788;2022-08-03T11:53:50;113.20;;;29.10;;
11425;SDS011;5769;47.998;7.788;2022-08-03T11:56:17;113.20;;;29.00;;
11425;SDS011;5769;47.998;7.788;2022-08-03T11:58:45;113.20;;;29.10;;
11425;SDS011;5769;47.998;7.788;2022-08-03T12:01:14;113.20;;;29.10;;
11425;SDS011;5769;47.998;7.788;2022-08-03T12:03:41;112.97;;;29.00;;
11425;SDS011;5769;47.998;7.788;2022-08-03T12:06:08;112.93;;;29.03;;
11425;SDS011;5769;47.998;7.788;2022-08-03T12:08:36;113.00;;;29.00;;
11425;SDS011;5769;47.998;7.788;2022-08-03T12:11:04;113.00;;;29.00;;
11425;SDS011;5769;47.998;7.788;2022-08-03T12:13:36;112.80;;;29.00;;
11425;SDS011;5769;47.998;7.788;2022-08-03T12:16:04;113.03;;;29.10;;
11425;SDS011;5769;47.998;7.788;2022-08-03T12:18:33;113.13;;;29.00;;
11425;SDS011;5769;47.998;7.788;2022-08-03T12:21:04;112.83;;;29.00;;
11425;SDS011;5769;47.998;7.788;2022-08-03T12:23:32;112.97;;;29.10;;
11425;SDS011;5769;47.998;7.788;2022-08-03T12:26:00;113.20;;;29.10;;
11425;SDS011;5769;47.998;7.788;2022-08-03T12:28:28;113.20;;;29.10;;
11425;SDS011;5769;47.998;7.788;2022-08-03T12:30:55;112.50;;;29.20;;
11425;SDS011;5769;47.998;7.788;2022-08-03T12:33:26;112.40;;;29.10;;
11425;SDS011;5769;47.998;7.788;2022-08-03T12:36:06;112.33;;;29.10;;
11425;SDS011;5769;47.998;7.788;2022-08-03T12:38:35;112.50;;;29.10;;
11425;SDS011;5769;47.998;7.788;2022-08-03T12:41:04;112.50;;;29.20;;
11425;SDS011;5769;47.998;7.788;2022-08-03T12:43:33;112.27;;;29.20;;
11425;SDS011;5769;47.998;7.788;2022-08-03T12:46:12;112.63;;;29.10;;
11425;SDS011;5769;47.998;7.788;2022-08-03T12:48:59;112.23;;;29.10;;
11425;SDS011;5769;47.998;7.788;2022-08-03T12:51:32;112.30;;;29.20;;
11425;SDS011;5769;47.998;7.788;2022-08-03T12:54:01;112.33;;;29.20;;
11425;SDS011;5769;47.998;7.788;2022-08-03T12:56:28;112.20;;;29.20;;
11425;SDS011;5769;47.998;7.788;2022-08-03T12:58:55;112.30;;;29.10;;
11425;SDS011;5769;47.998;7.788;2022-08-03T13:01:22;112.10;;;29.30;;
11425;SDS011;5769;47.998;7.788;2022-08-03T13:03:51;112.00;;;29.17;;
11425;SDS011;5769;47.998;7.788;2022-08-03T13:06:19;112.03;;;29.10;;
11425;SDS011;5769;47.998;7.788;2022-08-03T13:08:48;112.17;;;29.20;;
11425;SDS011;5769;47.998;7.788;2022-08-03T13:11:26;112.00;;;29.20;;
11425;SDS011;5769;47.998;7.788;2022-08-03T13:13:53;111.93;;;29.10;;
11425;SDS011;5769;47.998;7.788;2022-08-03T13:16:21;111.73;;;29.03;;
11425;SDS011;5769;47.998;7.788;2022-08-03T13:18:48;111.93;;;29.10;;
11425;SDS011;5769;47.998;7.788;2022-08-03T13:21:16;112.00;;;29.07;;
11425;SDS011;5769;47.998;7.788;2022-08-03T13:23:44;111.97;;;29.10;;
11425;SDS011;5769;47.998;7.788;2022-08-03T13:26:13;111.77;;;29.20;;
11425;SDS011;5769;47.998;7.788;2022-08-03T13:28:39;111.60;;;29.20;;
11425;SDS011;5769;47.998;7.788;2022-08-03T13:31:06;111.67;;;29.20;;
11425;SDS011;5769;47.998;7.788;2022-08-03T13:33:33;111.40;;;29.10;;
11425;SDS011;5769;47.998;7.788;2022-08-03T13:35:59;111.10;;;29.20;;
11425;SDS011;5769;47.998;7.788;2022-08-03T13:38:26;111.17;;;29.10;;
11425;SDS011;5769;47.998;7.788;2022-08-03T13:40:53;111.27;;;29.10;;
11425;SDS011;5769;47.998;7.788;2022-08-03T13:43:21;111.17;;;29.10;;
11425;SDS011;5769;47.998;7.788;2022-08-03T13:45:47;111.37;;;29.10;;
11425;SDS011;5769;47.998;7.788;2022-08-03T13:48:14;111.30;;;29.10;;
11425;SDS011;5769;47.998;7.788;2022-08-03T13:50:41;110.97;;;29.20;;
11425;SDS011;5769;47.998;7.788;2022-08-03T13:53:08;110.93;;;29.10;;
11425;SDS011;5769;47.998;7.788;2022-08-03T13:55:34;110.77;;;29.20;;
11425;SDS011;5769;47.998;7.788;2022-08-03T13:58:01;110.67;;;29.10;;
11425;SDS011;5769;47.998;7.788;2022-08-03T14:00:29;110.67;;;29.17;;
11425;SDS011;5769;47.998;7.788;2022-08-03T14:02:56;110.70;;;29.10;;
11425;SDS011;5769;47.998;7.788;2022-08-03T14:05:24;110.63;;;29.10;;
11425;SDS011;5769;47.998;7.788;2022-08-03T14:07:50;110.43;;;29.13;;
11425;SDS011;5769;47.998;7.788;2022-08-03T14:10:17;110.67;;;29.17;;
11425;SDS011;5769;47.998;7.788;2022-08-03T14:12:44;110.47;;;29.10;;
11425;SDS011;5769;47.998;7.788;2022-08-03T14:15:10;110.53;;;29.20;;
11425;SDS011;5769;47.998;7.788;2022-08-03T14:17:39;110.27;;;29.10;;
11425;SDS011;5769;47.998;7.788;2022-08-03T14:20:06;110.63;;;29.10;;
11425;SDS011;5769;47.998;7.788;2022-08-03T14:22:33;110.40;;;29.10;;
11425;SDS011;5769;47.998;7.788;2022-08-03T14:25:00;110.10;;;28.97;;
11425;SDS011;5769;47.998;7.788;2022-08-03T14:27:27;110.20;;;29.10;;
11425;SDS011;5769;47.998;7.788;2022-08-03T14:29:53;110.17;;;29.10;;
11425;SDS011;5769;47.998;7.788;2022-08-03T14:32:23;110.43;;;29.10;;
11425;SDS011;5769;47.998;7.788;2022-08-03T14:34:52;109.77;;;28.90;;
11425;SDS011;5769;47.998;7.788;2022-08-03T14:37:18;109.90;;;29.10;;
11425;SDS011;5769;47.998;7.788;2022-08-03T14:39:45;109.60;;;29.20;;
11425;SDS011;5769;47.998;7.788;2022-08-03T14:42:12;109.77;;;29.00;;
11425;SDS011;5769;47.998;7.788;2022-08-03T14:44:40;109.77;;;29.00;;
11425;SDS011;5769;47.998;7.788;2022-08-03T14:47:07;109.73;;;29.03;;
11425;SDS011;5769;47.998;7.788;2022-08-03T14:49:33;110.07;;;29.00;;
11425;SDS011;5769;47.998;7.788;2022-08-03T14:52:02;110.27;;;29.03;;
11425;SDS011;5769;47.998;7.788;2022-08-03T14:54:29;110.17;;;29.00;;
11425;SDS011;5769;47.998;7.788;2022-08-03T14:56:55;110.47;;;29.20;;